createdAt,value
2019-06-01T05:36:27.286Z,15.10
2019-06-01T05:38:58.615Z,16.77
2019-06-01T05:41:29.639Z,17.35
2019-06-01T05:44:00.676Z,13.85
2019-06-01T05:46:31.707Z,16.93
2019-06-01T05:49:02.733Z,18.98
2019-06-01T05:51:33.768Z,18.70
2019-06-01T05:54:05.096Z,18.75
2019-06-01T05:56:36.215Z,19.20
2019-06-01T05:59:07.375Z,17.32
2019-06-01T06:01:42.022Z,17.57
2019-06-01T06:04:13.457Z,24.98
2019-06-01T06:06:44.564Z,16.57
2019-06-01T06:09:17.108Z,19.85
2019-06-01T06:11:48.438Z,15.78
2019-06-01T06:14:21.077Z,14.85
2019-06-01T06:16:52.694Z,18.45
2019-06-01T06:19:23.889Z,13.98
2019-06-01T06:21:55.032Z,13.78
2019-06-01T06:24:26.196Z,14.87
2019-06-01T06:26:57.362Z,13.10
2019-06-01T06:29:28.496Z,16.15
2019-06-01T06:31:59.618Z,16.10
2019-06-01T06:34:30.839Z,14.93
2019-06-01T06:37:01.911Z,16.73
2019-06-01T06:39:33.064Z,16.93
2019-06-01T06:42:04.264Z,16.42
2019-06-01T06:44:35.543Z,11.85
2019-06-01T06:47:06.649Z,11.70
2019-06-01T06:49:37.774Z,9.85
2019-06-01T06:52:09.108Z,12.33
2019-06-01T06:54:40.317Z,11.63
2019-06-01T06:57:11.398Z,10.03
2019-06-01T06:59:42.525Z,9.18
2019-06-01T07:02:13.642Z,10.72
2019-06-01T07:04:44.842Z,9.10
2019-06-01T07:07:16.038Z,8.70
2019-06-01T07:09:47.195Z,8.13
2019-06-01T07:12:19.216Z,7.25
2019-06-01T07:14:50.431Z,10.00
2019-06-01T07:17:21.577Z,7.28
2019-06-01T07:19:52.734Z,9.23
2019-06-01T07:22:23.962Z,8.28
2019-06-01T07:24:55.137Z,8.60
2019-06-01T07:27:26.306Z,9.58
2019-06-01T07:29:58.474Z,7.40
2019-06-01T07:32:29.644Z,11.08
2019-06-01T07:35:01.776Z,7.72
2019-06-01T07:37:33.132Z,7.35
2019-06-01T07:40:07.418Z,9.23
2019-06-01T07:42:38.645Z,9.55
2019-06-01T07:45:09.866Z,8.48
2019-06-01T07:47:41.088Z,8.50
2019-06-01T07:50:12.397Z,8.38
2019-06-01T07:52:43.634Z,7.53
2019-06-01T07:55:14.996Z,8.78
2019-06-01T07:57:46.081Z,7.78
2019-06-01T08:00:18.421Z,8.05
2019-06-01T08:02:49.654Z,8.88
2019-06-01T08:05:23.270Z,9.43
2019-06-01T08:07:53.640Z,8.23
2019-06-01T08:10:26.025Z,8.33
2019-06-01T08:12:58.730Z,9.05
2019-06-01T08:15:29.907Z,7.87
2019-06-01T08:18:01.088Z,8.33
2019-06-01T08:20:32.362Z,8.20
2019-06-01T08:23:03.431Z,7.10
2019-06-01T08:25:34.976Z,7.45
2019-06-01T08:28:06.114Z,7.83
2019-06-01T08:30:37.226Z,6.53
2019-06-01T08:33:08.375Z,8.13
2019-06-01T08:35:39.491Z,4.85
2019-06-01T08:38:10.576Z,5.62
2019-06-01T08:40:41.695Z,8.98
2019-06-01T08:43:13.034Z,6.25
2019-06-01T08:45:44.219Z,9.70
2019-06-01T08:48:15.473Z,8.18
2019-06-01T08:50:46.609Z,7.83
2019-06-01T08:53:17.721Z,9.60
2019-06-01T08:55:48.863Z,7.53
2019-06-01T08:58:20.018Z,7.22
2019-06-01T09:00:51.210Z,6.83
2019-06-01T09:03:22.555Z,7.45
2019-06-01T09:05:53.669Z,6.70
2019-06-01T09:08:26.015Z,5.20
2019-06-01T09:10:57.611Z,6.45
2019-06-01T09:13:29.141Z,8.70
2019-06-01T09:16:00.360Z,6.65
2019-06-01T09:18:31.605Z,7.08
2019-06-01T09:21:02.763Z,5.72
2019-06-01T09:23:33.872Z,7.17
2019-06-01T09:26:05.509Z,6.33
2019-06-01T09:28:37.644Z,5.75
2019-06-01T09:31:08.886Z,5.65
2019-06-01T09:33:40.059Z,7.92
2019-06-01T09:36:11.311Z,6.80
2019-06-01T09:38:42.555Z,6.33
2019-06-01T09:41:13.750Z,6.58
2019-06-01T09:43:45.045Z,9.03
2019-06-01T09:46:16.129Z,8.35
2019-06-01T09:48:47.518Z,11.00
2019-06-01T09:51:18.625Z,7.85
2019-06-01T09:53:49.764Z,6.03
2019-06-01T09:56:20.888Z,7.62
2019-06-01T09:58:51.952Z,5.65
